Time;durP1;ratioP1;P1;durP2;ratioP2;P2;SDS_P1;SDS_P2;PMS_P1;PMS_P2;Temp;Humidity;BMP_temperature;BMP_pressure;BME280_temperature;BME280_humidity;BME280_pressure;Samples;Min_cycle;Max_cycle;Signal;HPM_P1;HPM_P2
2024/02/06 00:01:47;;;;;;;6.03;5.93;;;8.60;99.90;;;;;;5053695;28;20464;-72
2024/02/06 00:04:14;;;;;;;5.97;5.87;;;8.60;99.90;;;;;;5051351;28;20824;-72
2024/02/06 00:06:42;;;;;;;5.97;5.87;;;8.70;99.90;;;;;;5052211;28;20491;-71
2024/02/06 00:09:09;;;;;;;6.90;6.80;;;8.70;99.90;;;;;;5050700;28;20523;-71
2024/02/06 00:11:38;;;;;;;6.97;6.87;;;8.70;99.90;;;;;;5048389;28;20510;-72
2024/02/06 00:14:05;;;;;;;6.90;6.80;;;8.80;99.90;;;;;;5049843;28;20815;-72
2024/02/06 00:16:33;;;;;;;7.60;7.50;;;8.80;99.90;;;;;;5053109;28;20542;-71
2024/02/06 00:19:01;;;;;;;7.47;7.37;;;8.80;99.90;;;;;;5049977;28;20820;-72
2024/02/06 00:21:28;;;;;;;7.60;7.50;;;8.80;99.90;;;;;;5053251;28;20526;-71
2024/02/06 00:23:55;;;;;;;7.60;7.50;;;8.90;99.90;;;;;;5046369;28;20501;-71
2024/02/06 00:26:22;;;;;;;7.80;7.70;;;8.90;99.90;;;;;;5045666;28;20487;-72
2024/02/06 00:28:48;;;;;;;7.67;7.57;;;8.90;99.90;;;;;;5049986;28;20854;-71
2024/02/06 00:31:16;;;;;;;8.00;7.90;;;9.00;99.90;;;;;;5045253;28;20831;-72
2024/02/06 00:33:44;;;;;;;8.43;8.33;;;9.00;99.90;;;;;;5050351;28;21295;-71
2024/02/06 00:36:10;;;;;;;8.30;8.20;;;9.00;99.90;;;;;;5054388;28;20464;-71
2024/02/06 00:38:37;;;;;;;8.87;8.70;;;9.10;99.90;;;;;;5050052;28;20539;-72
2024/02/06 00:41:05;;;;;;;8.63;8.53;;;9.10;99.90;;;;;;5045562;28;20995;-71
2024/02/06 00:43:32;;;;;;;8.67;8.57;;;9.10;99.90;;;;;;5050608;28;20456;-70
2024/02/06 00:45:59;;;;;;;9.17;8.97;;;9.10;99.90;;;;;;5048858;28;20564;-71
2024/02/06 00:48:26;;;;;;;8.70;8.60;;;9.10;99.90;;;;;;5045692;28;20474;-71
2024/02/06 00:50:54;;;;;;;9.07;8.87;;;9.20;99.90;;;;;;5053490;28;20504;-71
2024/02/06 00:53:21;;;;;;;8.90;8.73;;;9.20;99.90;;;;;;5057732;28;20448;-71
2024/02/06 00:55:48;;;;;;;9.60;9.40;;;9.10;99.90;;;;;;5050392;28;20500;-71
2024/02/06 00:58:16;;;;;;;9.13;8.93;;;9.20;99.90;;;;;;5047744;28;20589;-71
2024/02/06 01:00:43;;;;;;;9.60;9.40;;;9.20;99.90;;;;;;5050039;28;20461;-70
2024/02/06 01:03:10;;;;;;;9.20;9.00;;;9.20;99.90;;;;;;5050296;28;20459;-71
2024/02/06 01:05:37;;;;;;;9.63;9.43;;;9.30;99.90;;;;;;5048220;28;20508;-70
2024/02/06 01:08:06;;;;;;;9.43;9.23;;;9.30;99.90;;;;;;5050166;28;20475;-71
2024/02/06 01:10:33;;;;;;;8.93;8.73;;;9.30;99.90;;;;;;5044506;28;20474;-70
2024/02/06 01:13:00;;;;;;;8.93;8.73;;;9.30;99.90;;;;;;5050530;28;20463;-71
2024/02/06 01:15:27;;;;;;;9.10;8.90;;;9.20;99.90;;;;;;5048607;28;20464;-71
2024/02/06 01:17:54;;;;;;;8.90;8.70;;;9.20;99.90;;;;;;5046831;28;20487;-71
2024/02/06 01:20:21;;;;;;;9.00;8.80;;;9.20;99.90;;;;;;5046835;28;20468;-71
2024/02/06 01:22:48;;;;;;;8.70;8.60;;;9.20;99.90;;;;;;5059442;28;20508;-71
2024/02/06 01:25:17;;;;;;;8.73;8.60;;;9.20;99.90;;;;;;5050058;28;20949;-72
2024/02/06 01:27:44;;;;;;;9.33;9.13;;;9.10;99.90;;;;;;5049065;28;20522;-71
2024/02/06 01:30:11;;;;;;;9.50;9.30;;;9.20;99.90;;;;;;5046890;28;20468;-72
2024/02/06 01:32:39;;;;;;;9.40;9.20;;;9.10;99.90;;;;;;5045245;28;20553;-71
2024/02/06 01:35:07;;;;;;;9.20;9.00;;;9.20;99.90;;;;;;5048128;28;20460;-70
2024/02/06 01:37:34;;;;;;;9.27;9.07;;;9.20;99.90;;;;;;5056597;28;20453;-71
2024/02/06 01:40:00;;;;;;;9.47;9.27;;;9.20;99.90;;;;;;5049582;28;20489;-71
2024/02/06 01:42:29;;;;;;;9.17;8.97;;;9.20;99.90;;;;;;5047314;28;20469;-71
2024/02/06 01:44:55;;;;;;;9.30;9.10;;;9.20;99.90;;;;;;5046934;28;20471;-70
2024/02/06 01:47:22;;;;;;;9.93;9.73;;;9.20;99.90;;;;;;5047542;28;20852;-71
2024/02/06 01:49:50;;;;;;;9.10;8.90;;;9.20;99.90;;;;;;5047141;28;20468;-71
2024/02/06 01:52:18;;;;;;;9.97;9.77;;;9.10;99.90;;;;;;5050244;28;20452;-71
2024/02/06 01:54:45;;;;;;;9.40;9.20;;;9.10;99.90;;;;;;5047205;28;20460;-73
2024/02/06 01:57:12;;;;;;;10.30;10.10;;;9.20;99.90;;;;;;5050732;28;20463;-70
2024/02/06 01:59:41;;;;;;;9.77;9.57;;;9.20;99.90;;;;;;5049615;28;20503;-71
2024/02/06 02:02:08;;;;;;;9.97;9.77;;;9.20;99.90;;;;;;5051304;28;20825;-72
2024/02/06 02:04:35;;;;;;;9.77;9.57;;;9.20;99.90;;;;;;5046013;28;20470;-72
2024/02/06 02:07:02;;;;;;;10.10;9.90;;;9.20;99.90;;;;;;5051903;28;20466;-70
2024/02/06 02:09:29;;;;;;;9.70;9.50;;;9.30;99.90;;;;;;5055049;28;20467;-72
2024/02/06 02:11:57;;;;;;;9.80;9.60;;;9.30;99.90;;;;;;5057961;28;20452;-72
2024/02/06 02:14:24;;;;;;;10.00;9.80;;;9.30;99.90;;;;;;5053646;28;20462;-73
2024/02/06 02:16:53;;;;;;;9.90;9.70;;;9.30;99.90;;;;;;5051285;28;20461;-73
2024/02/06 02:19:20;;;;;;;9.30;9.10;;;9.30;99.90;;;;;;5056199;28;20523;-72
2024/02/06 02:21:49;;;;;;;10.00;9.80;;;9.30;99.90;;;;;;5052260;28;20855;-72
2024/02/06 02:24:15;;;;;;;9.10;8.90;;;9.40;99.90;;;;;;5053650;28;20792;-71
2024/02/06 02:26:43;;;;;;;9.50;9.30;;;9.40;99.90;;;;;;5052488;28;20465;-71
2024/02/06 02:29:10;;;;;;;9.50;9.30;;;9.40;99.90;;;;;;5050656;28;21113;-71
2024/02/06 02:31:39;;;;;;;9.20;9.00;;;9.30;99.90;;;;;;5049295;28;20468;-72
2024/02/06 02:34:08;;;;;;;10.17;9.97;;;9.40;99.90;;;;;;5052342;28;20455;-71
2024/02/06 02:36:35;;;;;;;10.40;10.20;;;9.40;99.90;;;;;;5052230;28;20454;-72
2024/02/06 02:39:03;;;;;;;9.80;9.60;;;9.40;99.90;;;;;;5056558;28;20480;-72
2024/02/06 02:41:30;;;;;;;10.20;10.00;;;9.40;99.90;;;;;;5055211;28;21016;-72
2024/02/06 02:43:57;;;;;;;10.00;9.80;;;9.40;99.90;;;;;;5054270;28;20469;-71
2024/02/06 02:46:24;;;;;;;10.60;10.40;;;9.40;99.90;;;;;;5051053;28;20455;-71
2024/02/06 02:48:51;;;;;;;11.00;10.70;;;9.40;99.90;;;;;;5052172;28;20465;-73
2024/02/06 02:51:17;;;;;;;10.67;10.47;;;9.50;99.90;;;;;;5056052;28;20511;-72
2024/02/06 02:53:44;;;;;;;10.40;10.20;;;9.50;99.90;;;;;;5056301;28;20470;-71
2024/02/06 02:56:12;;;;;;;11.30;11.00;;;9.50;99.90;;;;;;5054104;28;20456;-71
2024/02/06 02:58:39;;;;;;;10.67;10.47;;;9.50;99.90;;;;;;5052202;28;20835;-73
2024/02/06 03:01:06;;;;;;;11.37;11.07;;;9.50;99.90;;;;;;5052036;28;20787;-70
2024/02/06 03:03:34;;;;;;;11.30;11.00;;;9.60;99.90;;;;;;5051371;28;20475;-72
2024/02/06 03:06:00;;;;;;;10.30;10.10;;;9.60;99.90;;;;;;5057570;28;20964;-70
2024/02/06 03:08:27;;;;;;;11.30;11.00;;;9.60;99.90;;;;;;5057837;28;20816;-72
2024/02/06 03:10:55;;;;;;;10.50;10.30;;;9.60;99.90;;;;;;5046791;28;20514;-71
2024/02/06 03:13:23;;;;;;;10.20;10.00;;;9.50;99.90;;;;;;5050481;28;20936;-72
2024/02/06 03:15:50;;;;;;;11.30;11.00;;;9.60;99.90;;;;;;5049139;28;20464;-72
2024/02/06 03:18:17;;;;;;;10.87;10.60;;;9.60;99.90;;;;;;5048391;28;20959;-73
2024/02/06 03:20:44;;;;;;;11.03;10.73;;;9.60;99.90;;;;;;5050963;28;20974;-70
2024/02/06 03:23:11;;;;;;;11.13;10.83;;;9.60;99.90;;;;;;5050665;28;21026;-71
2024/02/06 03:25:38;;;;;;;11.10;10.80;;;9.60;99.90;;;;;;5048407;28;20464;-71
2024/02/06 03:28:06;;;;;;;11.50;11.20;;;9.60;99.90;;;;;;5054308;28;20476;-72
2024/02/06 03:30:34;;;;;;;10.70;10.50;;;9.60;99.90;;;;;;5055874;28;20448;-70
2024/02/06 03:33:01;;;;;;;11.20;10.90;;;9.60;99.90;;;;;;5048862;28;20459;-70
2024/02/06 03:35:28;;;;;;;11.17;10.87;;;9.50;99.90;;;;;;5053226;28;20466;-69
2024/02/06 03:37:55;;;;;;;11.30;11.00;;;9.50;99.90;;;;;;5044645;28;20493;-71
2024/02/06 03:40:22;;;;;;;11.50;11.20;;;9.50;99.90;;;;;;5051381;28;20591;-72
2024/02/06 03:42:49;;;;;;;11.47;11.17;;;9.60;99.90;;;;;;5048932;28;20491;-71
2024/02/06 03:45:16;;;;;;;11.70;11.40;;;9.60;99.90;;;;;;5053254;28;20443;-70
2024/02/06 03:47:44;;;;;;;11.53;11.23;;;9.60;99.90;;;;;;5050197;28;20810;-71
2024/02/06 03:50:11;;;;;;;10.63;10.43;;;9.60;99.90;;;;;;5047891;28;20466;-70
2024/02/06 03:52:38;;;;;;;11.00;10.70;;;9.50;99.90;;;;;;5048630;28;20508;-71
2024/02/06 03:55:06;;;;;;;11.00;10.70;;;9.50;99.90;;;;;;5053457;28;20832;-71
2024/02/06 03:57:34;;;;;;;10.77;10.53;;;9.50;99.90;;;;;;4977644;28;2189554;-73
2024/02/06 04:00:01;;;;;;;10.93;10.63;;;9.50;99.90;;;;;;5049601;28;21009;-71
2024/02/06 04:02:27;;;;;;;11.07;10.77;;;9.50;99.90;;;;;;5053351;28;20811;-69
2024/02/06 04:04:55;;;;;;;11.23;10.93;;;9.60;99.90;;;;;;5054163;28;21084;-72
2024/02/06 04:07:22;;;;;;;11.57;11.27;;;9.60;99.90;;;;;;5053807;28;20469;-70
2024/02/06 04:09:49;;;;;;;11.90;11.60;;;9.60;99.90;;;;;;5052398;28;20565;-72
2024/02/06 04:12:16;;;;;;;11.73;11.43;;;9.60;99.90;;;;;;5045538;28;20475;-71
2024/02/06 04:14:43;;;;;;;11.40;11.10;;;9.60;99.90;;;;;;5049332;28;20963;-71
2024/02/06 04:17:10;;;;;;;11.80;11.50;;;9.60;99.90;;;;;;5050120;28;20455;-71
2024/02/06 04:19:37;;;;;;;12.00;11.70;;;9.70;99.90;;;;;;5046938;28;20913;-72
2024/02/06 04:22:05;;;;;;;11.80;11.50;;;9.70;99.90;;;;;;5049158;28;21305;-70
2024/02/06 04:24:32;;;;;;;11.90;11.60;;;9.70;99.90;;;;;;5046007;28;20818;-71
2024/02/06 04:26:59;;;;;;;11.10;10.80;;;9.70;99.90;;;;;;5048638;28;20506;-71
2024/02/06 04:29:27;;;;;;;11.30;11.00;;;9.70;99.90;;;;;;5052864;28;20459;-72
2024/02/06 04:31:54;;;;;;;10.97;10.67;;;9.60;99.90;;;;;;5048074;28;20511;-70
2024/02/06 04:34:20;;;;;;;11.03;10.73;;;9.60;99.90;;;;;;5048211;28;20835;-70
2024/02/06 04:36:47;;;;;;;10.73;10.47;;;9.60;99.90;;;;;;5049020;28;20464;-71
2024/02/06 04:39:16;;;;;;;11.00;10.70;;;9.60;99.90;;;;;;5050615;28;20497;-71
2024/02/06 04:41:43;;;;;;;10.67;10.47;;;9.60;99.90;;;;;;5049069;28;20468;-72
2024/02/06 04:44:10;;;;;;;11.10;10.80;;;9.60;99.90;;;;;;5047082;28;20477;-73
2024/02/06 04:46:38;;;;;;;11.07;10.77;;;9.60;99.90;;;;;;5049921;28;20459;-71
2024/02/06 04:49:05;;;;;;;11.00;10.70;;;9.60;99.90;;;;;;5050138;28;20465;-71
2024/02/06 04:51:33;;;;;;;11.27;10.97;;;9.60;99.90;;;;;;5055030;28;20472;-71
2024/02/06 04:54:00;;;;;;;11.50;11.20;;;9.60;99.90;;;;;;5047032;28;20522;-71
2024/02/06 04:56:28;;;;;;;11.20;10.90;;;9.60;99.90;;;;;;5055379;28;20463;-72
2024/02/06 04:58:55;;;;;;;11.40;11.10;;;9.60;99.90;;;;;;5054382;28;20821;-71
2024/02/06 05:01:22;;;;;;;11.47;11.17;;;9.60;99.90;;;;;;5050670;28;20468;-73
2024/02/06 05:03:49;;;;;;;11.03;10.73;;;9.60;99.90;;;;;;5050951;28;20542;-71
2024/02/06 05:06:17;;;;;;;11.70;11.40;;;9.70;99.90;;;;;;5046777;28;20486;-71
2024/02/06 05:08:44;;;;;;;11.77;11.47;;;9.70;99.90;;;;;;5050448;28;20460;-72
2024/02/06 05:11:12;;;;;;;11.50;11.20;;;9.70;99.90;;;;;;5061461;28;20455;-70
2024/02/06 05:13:42;;;;;;;10.97;10.67;;;9.70;99.90;;;;;;5046731;28;20949;-71
2024/02/06 05:16:09;;;;;;;10.63;10.43;;;9.70;99.90;;;;;;5052078;28;20456;-73
2024/02/06 05:18:37;;;;;;;10.90;10.60;;;9.60;99.90;;;;;;5047900;28;20479;-70
2024/02/06 05:21:04;;;;;;;10.60;10.40;;;9.60;99.90;;;;;;5059418;28;20554;-71
2024/02/06 05:23:32;;;;;;;10.87;10.57;;;9.60;99.90;;;;;;5052076;28;20521;-73
2024/02/06 05:25:59;;;;;;;11.50;11.20;;;9.60;99.90;;;;;;5057837;28;20513;-72
2024/02/06 05:28:25;;;;;;;11.53;11.23;;;9.50;99.90;;;;;;5044951;28;20470;-72
2024/02/06 05:30:55;;;;;;;11.70;11.40;;;9.60;99.90;;;;;;5044013;28;20486;-71
2024/02/06 05:33:21;;;;;;;11.17;10.87;;;9.50;99.90;;;;;;5050624;28;20871;-72
2024/02/06 05:35:48;;;;;;;10.53;10.33;;;9.50;99.90;;;;;;5052118;28;20584;-71
2024/02/06 05:38:16;;;;;;;10.90;10.60;;;9.40;99.90;;;;;;5052438;28;20471;-73
2024/02/06 05:40:43;;;;;;;10.77;10.50;;;9.50;99.90;;;;;;5050293;28;20484;-71
2024/02/06 05:43:10;;;;;;;10.83;10.57;;;9.50;99.90;;;;;;5047610;28;20883;-71
2024/02/06 05:45:37;;;;;;;10.97;10.67;;;9.50;99.90;;;;;;5052771;28;20467;-73
2024/02/06 05:48:06;;;;;;;11.40;11.10;;;9.60;99.90;;;;;;5054495;28;20452;-72
2024/02/06 05:50:33;;;;;;;11.07;10.77;;;9.60;99.90;;;;;;5055687;28;20847;-71
2024/02/06 05:52:59;;;;;;;10.97;10.67;;;9.60;99.90;;;;;;5051616;28;20467;-71
2024/02/06 05:55:28;;;;;;;11.30;11.00;;;9.60;99.90;;;;;;5051474;28;20465;-71
2024/02/06 05:57:55;;;;;;;10.93;10.63;;;9.70;99.90;;;;;;5050507;28;20572;-73
2024/02/06 06:00:26;;;;;;;11.40;11.10;;;9.60;99.90;;;;;;5057579;28;20487;-71
2024/02/06 06:02:53;;;;;;;11.03;10.73;;;9.70;99.90;;;;;;5053756;28;20479;-73
2024/02/06 06:05:23;;;;;;;10.60;10.40;;;9.70;99.90;;;;;;5057292;28;20456;-71
2024/02/06 06:07:49;;;;;;;11.43;11.13;;;9.70;99.90;;;;;;5052749;28;20467;-71
2024/02/06 06:10:17;;;;;;;10.87;10.57;;;9.80;99.90;;;;;;5053036;28;20460;-71
2024/02/06 06:12:45;;;;;;;11.50;11.20;;;9.80;99.90;;;;;;5051601;28;20464;-72
2024/02/06 06:15:12;;;;;;;10.90;10.60;;;9.80;99.90;;;;;;5055096;28;20848;-73
2024/02/06 06:17:39;;;;;;;11.00;10.70;;;9.80;99.90;;;;;;5049581;28;20663;-71
2024/02/06 06:20:07;;;;;;;10.60;10.40;;;9.80;99.90;;;;;;5054052;28;20892;-71
2024/02/06 06:22:36;;;;;;;11.07;10.77;;;9.80;99.90;;;;;;5049804;28;20480;-71
2024/02/06 06:25:04;;;;;;;10.80;10.50;;;9.80;99.90;;;;;;5050092;28;20457;-72
2024/02/06 06:27:30;;;;;;;10.67;10.43;;;9.80;99.90;;;;;;5051060;28;20509;-72
2024/02/06 06:29:56;;;;;;;10.17;9.97;;;9.80;99.90;;;;;;5052272;28;20469;-71
2024/02/06 06:32:23;;;;;;;11.23;10.93;;;9.80;99.90;;;;;;5048520;28;20459;-71
2024/02/06 06:34:52;;;;;;;11.37;11.07;;;9.80;99.90;;;;;;5052764;28;20474;-72
2024/02/06 06:37:19;;;;;;;11.40;11.10;;;9.80;99.90;;;;;;5055352;28;21065;-74
2024/02/06 06:40:04;;;;;;;10.20;10.00;;;9.80;99.90;;;;;;5052750;28;20847;-72
2024/02/06 06:42:32;;;;;;;10.60;10.40;;;9.90;99.90;;;;;;5047942;28;20456;-72
2024/02/06 06:44:59;;;;;;;10.60;10.40;;;9.90;99.90;;;;;;5049214;28;20494;-71
2024/02/06 06:47:26;;;;;;;11.37;11.07;;;9.90;99.90;;;;;;5050949;28;20487;-74
2024/02/06 06:49:54;;;;;;;11.20;10.90;;;9.90;99.90;;;;;;5048373;28;20502;-72
2024/02/06 06:52:20;;;;;;;10.53;10.33;;;9.90;99.90;;;;;;5049198;28;20839;-73
2024/02/06 06:54:49;;;;;;;10.50;10.30;;;9.90;99.90;;;;;;5056405;28;20467;-72
2024/02/06 06:57:15;;;;;;;10.10;9.90;;;9.80;99.90;;;;;;5056564;28;20675;-71
2024/02/06 06:59:43;;;;;;;10.20;10.00;;;9.90;99.90;;;;;;5056575;28;20491;-73
2024/02/06 07:02:10;;;;;;;10.27;10.07;;;9.90;99.90;;;;;;5058211;28;20824;-70
2024/02/06 07:04:37;;;;;;;11.03;10.73;;;9.90;99.90;;;;;;5061004;28;20463;-72
2024/02/06 07:07:04;;;;;;;11.10;10.80;;;9.90;99.90;;;;;;5050914;28;20473;-71
2024/02/06 07:09:31;;;;;;;10.40;10.20;;;10.00;99.90;;;;;;5055644;28;20448;-71
2024/02/06 07:11:59;;;;;;;11.23;10.93;;;9.90;99.90;;;;;;5058693;28;20463;-71
2024/02/06 07:14:26;;;;;;;11.70;11.40;;;10.00;99.90;;;;;;5052065;28;20465;-72
2024/02/06 07:16:52;;;;;;;11.80;11.50;;;10.00;99.90;;;;;;5052547;28;20797;-72
2024/02/06 07:19:20;;;;;;;11.30;11.00;;;10.00;99.90;;;;;;5057687;28;20821;-71
2024/02/06 07:21:55;;;;;;;11.10;10.80;;;10.00;99.90;;;;;;5057228;28;20488;-72
2024/02/06 07:24:24;;;;;;;11.20;10.90;;;10.00;99.90;;;;;;5053913;28;20464;-74
2024/02/06 07:26:51;;;;;;;11.47;11.17;;;10.10;99.90;;;;;;5059210;28;20466;-72
2024/02/06 07:29:19;;;;;;;11.83;11.53;;;10.00;99.90;;;;;;5052881;28;20555;-71
2024/02/06 07:31:46;;;;;;;11.60;11.30;;;10.10;99.90;;;;;;5046682;28;20479;-72
2024/02/06 07:34:14;;;;;;;11.30;11.00;;;10.10;99.90;;;;;;5052390;28;21039;-71
2024/02/06 07:36:41;;;;;;;11.23;10.93;;;10.10;99.90;;;;;;5052996;28;21037;-72
2024/02/06 07:39:08;;;;;;;11.20;10.90;;;10.10;99.90;;;;;;5053115;28;20456;-71
2024/02/06 07:41:35;;;;;;;10.47;10.27;;;10.10;99.90;;;;;;5048543;28;20488;-72
2024/02/06 07:44:03;;;;;;;11.37;11.07;;;10.10;99.90;;;;;;5050435;28;20977;-72
2024/02/06 07:46:32;;;;;;;11.17;10.87;;;10.10;99.90;;;;;;5051626;28;20458;-72
2024/02/06 07:48:59;;;;;;;11.30;11.00;;;10.20;99.90;;;;;;5054956;28;20466;-71
2024/02/06 07:51:26;;;;;;;11.37;11.07;;;10.20;99.90;;;;;;5047875;28;20464;-73
2024/02/06 07:53:54;;;;;;;11.30;11.00;;;10.20;99.90;;;;;;5052765;28;20472;-72
2024/02/06 07:56:21;;;;;;;11.23;10.93;;;10.30;99.90;;;;;;5051149;28;20451;-71
2024/02/06 07:58:48;;;;;;;11.03;10.73;;;10.20;99.90;;;;;;5052743;28;20484;-72
2024/02/06 08:01:15;;;;;;;10.87;10.57;;;10.30;99.90;;;;;;5056032;28;20487;-71
2024/02/06 08:03:44;;;;;;;11.37;11.07;;;10.30;99.90;;;;;;5053031;28;20969;-72
2024/02/06 08:06:10;;;;;;;11.50;11.20;;;10.30;99.90;;;;;;5045878;28;20968;-74
2024/02/06 08:08:38;;;;;;;11.43;11.13;;;10.30;99.90;;;;;;5059688;28;20474;-71
2024/02/06 08:11:05;;;;;;;11.93;11.63;;;10.40;99.90;;;;;;5047761;28;20541;-72
2024/02/06 08:13:31;;;;;;;11.70;11.40;;;10.40;99.90;;;;;;5044885;28;20963;-74
2024/02/06 08:15:58;;;;;;;11.63;11.33;;;10.40;99.90;;;;;;5048556;28;20480;-74
2024/02/06 08:18:25;;;;;;;11.90;11.60;;;10.40;99.90;;;;;;5045458;28;20468;-72
2024/02/06 08:20:53;;;;;;;11.80;11.50;;;10.40;99.90;;;;;;5039199;28;20511;-74
2024/02/06 08:23:22;;;;;;;11.70;11.40;;;10.50;99.90;;;;;;5044656;28;20468;-72
2024/02/06 08:25:48;;;;;;;11.70;11.40;;;10.50;99.90;;;;;;5046345;28;22214;-71
2024/02/06 08:28:16;;;;;;;12.00;11.70;;;10.50;99.90;;;;;;5049197;28;20464;-74
2024/02/06 08:30:47;;;;;;;12.10;11.80;;;10.50;99.90;;;;;;5047713;28;20974;-73
2024/02/06 08:33:15;;;;;;;12.53;12.13;;;10.50;99.90;;;;;;5046752;28;20475;-72
2024/02/06 08:35:42;;;;;;;11.50;11.20;;;10.50;99.90;;;;;;5051122;28;20471;-71
2024/02/06 08:38:10;;;;;;;11.90;11.60;;;10.50;99.90;;;;;;5048103;28;20780;-72
2024/02/06 08:40:38;;;;;;;11.67;11.37;;;10.50;99.90;;;;;;5049242;28;20484;-71
2024/02/06 08:43:05;;;;;;;11.03;10.73;;;10.50;99.90;;;;;;5047207;28;20460;-73
2024/02/06 08:45:32;;;;;;;11.30;11.00;;;10.50;99.90;;;;;;5048608;28;20468;-70
2024/02/06 08:47:59;;;;;;;11.30;11.00;;;10.40;99.90;;;;;;5050058;28;20480;-73
2024/02/06 08:50:26;;;;;;;11.07;10.77;;;10.50;99.90;;;;;;5046046;28;20470;-71
2024/02/06 08:52:53;;;;;;;10.83;10.53;;;10.40;99.90;;;;;;5044531;28;20925;-71
2024/02/06 08:55:21;;;;;;;10.93;10.63;;;10.40;99.90;;;;;;5049183;28;21048;-71
2024/02/06 08:57:48;;;;;;;10.43;10.20;;;10.40;99.90;;;;;;5050817;28;20482;-71
2024/02/06 09:00:16;;;;;;;10.23;10.03;;;10.50;99.90;;;;;;5046924;28;20798;-71
2024/02/06 09:02:43;;;;;;;10.10;9.90;;;10.40;99.90;;;;;;5046972;28;20912;-72
2024/02/06 09:05:10;;;;;;;10.17;9.97;;;10.20;99.90;;;;;;5043105;28;20464;-73
2024/02/06 09:07:37;;;;;;;9.97;9.77;;;10.20;99.90;;;;;;5046051;28;20498;-72
2024/02/06 09:10:05;;;;;;;9.57;9.37;;;10.20;99.90;;;;;;5050688;28;20460;-73
2024/02/06 09:12:33;;;;;;;10.00;9.80;;;10.20;99.90;;;;;;5046435;28;20469;-71
2024/02/06 09:15:01;;;;;;;9.90;9.70;;;10.20;99.90;;;;;;5046534;28;20471;-72
2024/02/06 09:17:27;;;;;;;10.37;10.17;;;10.20;99.90;;;;;;5050974;28;20902;-71
2024/02/06 09:19:54;;;;;;;10.07;9.87;;;10.20;99.90;;;;;;5046863;28;20468;-71
2024/02/06 09:22:21;;;;;;;10.10;9.90;;;10.30;99.90;;;;;;5043163;28;20508;-71
2024/02/06 09:24:48;;;;;;;10.40;10.20;;;10.30;99.90;;;;;;5049110;28;20475;-72
2024/02/06 09:27:15;;;;;;;10.37;10.17;;;10.30;99.90;;;;;;5046225;28;20770;-71
2024/02/06 09:29:43;;;;;;;10.83;10.53;;;10.40;99.90;;;;;;5049410;28;20455;-73
2024/02/06 09:32:10;;;;;;;10.30;10.10;;;10.40;99.90;;;;;;5041214;28;20534;-72
2024/02/06 09:34:37;;;;;;;9.97;9.77;;;10.40;99.90;;;;;;5042041;28;20468;-72
2024/02/06 09:37:04;;;;;;;9.90;9.70;;;10.40;99.90;;;;;;5043518;28;20472;-71
2024/02/06 09:39:31;;;;;;;9.97;9.77;;;10.30;99.90;;;;;;5043241;28;20841;-70
2024/02/06 09:42:01;;;;;;;10.10;9.90;;;10.40;99.90;;;;;;5048026;28;20499;-71
2024/02/06 09:44:28;;;;;;;10.57;10.33;;;10.40;99.90;;;;;;5043845;28;20470;-71
2024/02/06 09:46:59;;;;;;;10.70;10.40;;;10.50;99.90;;;;;;5044230;28;20466;-72
2024/02/06 09:49:26;;;;;;;10.60;10.30;;;10.50;99.90;;;;;;5048986;28;20476;-71
2024/02/06 09:51:53;;;;;;;10.70;10.40;;;10.50;99.90;;;;;;5043191;28;20499;-73
2024/02/06 09:54:25;;;;;;;9.83;9.63;;;10.40;99.90;;;;;;5045892;28;20970;-72
2024/02/06 09:56:53;;;;;;;9.13;8.93;;;10.40;99.90;;;;;;5048386;28;20556;-71
2024/02/06 09:59:21;;;;;;;9.30;9.10;;;10.30;99.90;;;;;;5047998;28;20484;-73
2024/02/06 10:01:49;;;;;;;9.07;8.87;;;10.40;99.90;;;;;;5047861;28;21025;-71
2024/02/06 10:04:21;;;;;;;9.43;9.23;;;10.40;99.90;;;;;;5043198;28;20469;-71
2024/02/06 10:06:48;;;;;;;9.73;9.53;;;10.40;99.90;;;;;;5048817;28;20453;-71
2024/02/06 10:09:17;;;;;;;10.27;10.07;;;10.50;99.90;;;;;;5045266;28;20474;-71
2024/02/06 10:11:43;;;;;;;11.20;10.90;;;10.60;99.90;;;;;;5048274;28;20468;-73
2024/02/06 10:14:11;;;;;;;11.40;11.10;;;10.60;99.90;;;;;;5045673;28;20469;-74
2024/02/06 10:16:38;;;;;;;11.03;10.73;;;10.70;99.90;;;;;;5040719;28;20693;-71
2024/02/06 10:19:05;;;;;;;10.80;10.50;;;10.80;99.90;;;;;;5048202;28;20469;-71
2024/02/06 10:21:33;;;;;;;11.00;10.70;;;10.70;99.90;;;;;;5044886;28;20486;-72
2024/02/06 10:24:02;;;;;;;10.53;10.30;;;10.70;99.90;;;;;;5045297;28;20524;-71
2024/02/06 10:26:29;;;;;;;10.47;10.27;;;10.60;99.90;;;;;;5046042;28;20505;-71
2024/02/06 10:29:08;;;;;;;11.03;10.73;;;10.60;99.90;;;;;;5052076;28;20463;-71
2024/02/06 10:31:37;;;;;;;10.43;10.23;;;10.70;99.90;;;;;;5046297;28;20461;-71
2024/02/06 10:34:11;;;;;;;10.83;10.53;;;10.70;99.90;;;;;;5053177;28;20489;-71
2024/02/06 10:36:39;;;;;;;11.37;11.07;;;10.80;99.90;;;;;;5050007;28;20472;-72
2024/02/06 10:39:08;;;;;;;11.33;11.03;;;10.80;99.90;;;;;;5050430;28;21010;-72
2024/02/06 10:41:35;;;;;;;10.53;10.33;;;10.80;99.90;;;;;;5050438;28;20965;-71
2024/02/06 10:44:10;;;;;;;11.53;11.23;;;10.90;99.90;;;;;;5052877;28;20462;-71
2024/02/06 10:46:37;;;;;;;11.33;11.03;;;10.80;99.90;;;;;;5049693;28;20822;-72
2024/02/06 10:49:05;;;;;;;10.50;10.30;;;10.80;99.90;;;;;;5052282;28;20463;-73
2024/02/06 10:51:33;;;;;;;11.17;10.87;;;10.80;99.90;;;;;;5048442;28;20468;-72
2024/02/06 10:54:01;;;;;;;11.20;10.90;;;10.80;99.90;;;;;;5052585;28;20637;-73
2024/02/06 10:56:31;;;;;;;12.50;12.10;;;10.90;99.90;;;;;;5051932;28;20463;-70
2024/02/06 10:58:58;;;;;;;11.50;11.20;;;11.00;99.90;;;;;;5046383;28;20523;-71
2024/02/06 11:01:36;;;;;;;11.90;11.60;;;11.10;99.90;;;;;;5053436;28;20499;-72
2024/02/06 11:04:08;;;;;;;12.20;11.80;;;11.20;99.90;;;;;;5050739;28;20820;-70
2024/02/06 11:06:39;;;;;;;12.30;11.90;;;11.20;99.90;;;;;;5047910;28;20468;-73
2024/02/06 11:09:11;;;;;;;11.97;11.67;;;11.10;99.90;;;;;;5049954;28;20462;-70
2024/02/06 11:11:40;;;;;;;11.80;11.50;;;11.10;99.90;;;;;;5046790;28;20915;-73
2024/02/06 11:14:08;;;;;;;11.40;11.10;;;11.10;99.90;;;;;;5051483;28;20473;-72
2024/02/06 11:16:42;;;;;;;11.10;10.80;;;10.90;99.90;;;;;;5049368;28;20836;-70
2024/02/06 11:19:16;;;;;;;10.67;10.37;;;10.80;99.90;;;;;;5053599;28;20492;-71
2024/02/06 11:21:49;;;;;;;10.43;10.20;;;10.70;99.90;;;;;;5043380;28;20500;-71
2024/02/06 11:24:19;;;;;;;10.80;10.50;;;10.60;99.90;;;;;;5045124;28;20460;-71
2024/02/06 11:26:47;;;;;;;11.00;10.70;;;10.60;99.90;;;;;;5048969;28;20468;-71
2024/02/06 11:29:15;;;;;;;11.50;11.20;;;10.70;99.90;;;;;;5047310;28;20464;-72
2024/02/06 11:31:43;;;;;;;11.63;11.33;;;10.80;99.90;;;;;;5042326;28;20457;-71
2024/02/06 11:34:14;;;;;;;11.43;11.13;;;10.90;99.90;;;;;;5049373;28;20457;-72
2024/02/06 11:36:41;;;;;;;12.53;12.13;;;11.10;99.90;;;;;;5045419;28;21042;-71
2024/02/06 11:39:09;;;;;;;12.03;11.70;;;11.10;99.90;;;;;;5050500;28;20822;-73
2024/02/06 11:41:38;;;;;;;12.17;11.77;;;11.00;99.90;;;;;;5049818;28;20550;-71
2024/02/06 11:44:10;;;;;;;12.30;11.90;;;11.10;99.90;;;;;;5048935;28;20470;-70
2024/02/06 11:46:44;;;;;;;12.10;11.70;;;11.10;99.90;;;;;;5043482;28;20458;-72
2024/02/06 11:49:11;;;;;;;11.87;11.57;;;11.10;99.90;;;;;;5048323;28;20798;-71
2024/02/06 11:51:38;;;;;;;12.20;11.80;;;11.00;99.90;;;;;;5048003;28;20558;-71
2024/02/06 11:54:13;;;;;;;12.50;12.10;;;11.10;99.90;;;;;;5044886;28;20460;-70
2024/02/06 11:56:42;;;;;;;12.20;11.80;;;11.00;99.90;;;;;;5049380;28;20646;-72
2024/02/06 11:59:09;;;;;;;12.40;12.00;;;11.10;99.90;;;;;;5044380;28;20499;-70
2024/02/06 12:01:36;;;;;;;12.77;12.37;;;11.10;99.90;;;;;;5048451;28;21022;-71
2024/02/06 12:04:04;;;;;;;12.33;11.93;;;11.10;99.90;;;;;;5048611;28;20548;-71
2024/02/06 12:06:31;;;;;;;12.13;11.83;;;11.10;99.90;;;;;;5046999;28;21442;-71
2024/02/06 12:09:02;;;;;;;12.70;12.30;;;11.10;99.90;;;;;;5046426;28;20904;-70
2024/02/06 12:11:32;;;;;;;12.40;12.00;;;11.10;99.90;;;;;;5046047;28;20464;-71
2024/02/06 12:14:01;;;;;;;12.50;12.10;;;11.20;99.90;;;;;;5047022;28;20468;-71
2024/02/06 12:16:28;;;;;;;12.43;12.03;;;11.20;99.90;;;;;;5050330;28;20475;-72
2024/02/06 12:18:55;;;;;;;12.80;12.40;;;11.30;99.90;;;;;;5049524;28;20965;-70
2024/02/06 12:21:22;;;;;;;12.67;12.27;;;11.40;99.90;;;;;;5049588;28;20994;-70
2024/02/06 12:23:49;;;;;;;12.40;12.00;;;11.40;99.90;;;;;;5045659;28;20960;-71
2024/02/06 12:26:23;;;;;;;13.13;12.73;;;11.40;99.90;;;;;;5046836;28;20468;-72
2024/02/06 12:29:02;;;;;;;13.20;12.80;;;11.50;99.90;;;;;;5047947;28;20499;-70
2024/02/06 12:31:31;;;;;;;13.00;12.60;;;11.60;99.90;;;;;;5048349;28;20477;-72
2024/02/06 12:34:00;;;;;;;13.17;12.77;;;11.90;99.90;;;;;;5048411;28;20472;-70
2024/02/06 12:36:27;;;;;;;13.20;12.80;;;11.90;99.90;;;;;;5046678;28;20490;-70
2024/02/06 12:38:54;;;;;;;13.50;13.10;;;11.90;99.90;;;;;;5046972;28;20467;-73
2024/02/06 12:41:22;;;;;;;14.03;13.53;;;11.90;99.90;;;;;;5048503;28;20985;-71